Time;durP1;ratioP1;P1;durP2;ratioP2;P2;SDS_P1;SDS_P2;PMS_P1;PMS_P2;Temp;Humidity;BMP_temperature;BMP_pressure;BME280_temperature;BME280_humidity;BME280_pressure;Samples;Min_cycle;Max_cycle;Signal;HPM_P1;HPM_P2
2022/12/28 00:01:34;;;;;;;4.87;4.37;;;;;;;12.09;55.18;100462.69;5063980;28;20617;-56
2022/12/28 00:04:05;;;;;;;5.13;4.10;;;;;;;12.10;54.92;100457.56;5073853;28;20195;-56
2022/12/28 00:06:33;;;;;;;4.40;4.00;;;;;;;11.91;54.67;100432.19;5074807;28;20187;-55
2022/12/28 00:09:00;;;;;;;5.90;4.13;;;;;;;12.08;54.57;100459.25;5074769;28;20649;-56
2022/12/28 00:11:28;;;;;;;5.13;4.10;;;;;;;12.12;54.04;100470.47;5074882;28;20557;-56
2022/12/28 00:13:55;;;;;;;4.63;4.20;;;;;;;12.13;53.78;100467.97;5074681;28;20685;-56
2022/12/28 00:16:25;;;;;;;5.17;3.73;;;;;;;12.09;53.60;100468.72;5056873;28;20255;-56
2022/12/28 00:18:52;;;;;;;6.23;4.03;;;;;;;12.15;53.30;100466.28;5054478;28;20227;-56
2022/12/28 00:21:21;;;;;;;4.20;3.80;;;;;;;12.22;52.75;100468.16;5054501;28;20193;-56
2022/12/28 00:23:51;;;;;;;4.10;3.70;;;;;;;12.22;52.63;100463.03;5054571;28;20196;-56
2022/12/28 00:26:19;;;;;;;5.20;4.53;;;;;;;12.23;52.61;100463.91;5054535;28;20188;-55
2022/12/28 00:28:45;;;;;;;4.93;4.43;;;;;;;12.19;52.96;100462.97;5054456;28;20207;-56
2022/12/28 00:31:13;;;;;;;5.80;4.28;;;;;;;12.10;51.48;100436.09;5053728;28;20432;-56
2022/12/28 00:33:39;;;;;;;3.80;3.50;;;;;;;12.29;51.04;100464.06;5053380;28;20188;-55
2022/12/28 00:36:07;;;;;;;4.20;3.80;;;;;;;12.27;51.59;100465.72;5062403;28;20199;-56
2022/12/28 00:38:37;;;;;;;4.63;4.17;;;;;;;12.31;50.74;100468.41;5074081;28;20756;-56
2022/12/28 00:41:04;;;;;;;4.20;3.83;;;;;;;12.29;50.74;100464.94;5074350;28;20253;-56
2022/12/28 00:43:31;;;;;;;4.87;3.80;;;;;;;12.32;50.79;100477.03;5074747;28;20303;-56
2022/12/28 00:45:58;;;;;;;4.13;3.60;;;;;;;12.31;50.94;100476.16;5073977;28;20187;-56
2022/12/28 00:48:25;;;;;;;4.50;3.57;;;;;;;12.27;50.69;100470.88;5074003;28;20245;-56
2022/12/28 00:50:52;;;;;;;4.40;4.00;;;;;;;12.25;50.63;100477.72;5073955;28;20659;-56
2022/12/28 00:53:20;;;;;;;5.13;4.07;;;;;;;12.21;50.97;100475.88;5073949;28;20731;-56
2022/12/28 00:55:48;;;;;;;5.37;3.93;;;;;;;12.20;51.20;100467.28;5073970;28;20199;-56
2022/12/28 00:58:14;;;;;;;4.93;4.43;;;;;;;12.19;51.47;100473.28;5074346;28;20269;-55
2022/12/28 01:00:41;;;;;;;4.77;3.80;;;;;;;12.23;51.31;100475.09;5073917;28;20191;-55
2022/12/28 01:03:08;;;;;;;5.30;3.70;;;;;;;12.20;50.98;100482.72;5073913;28;20195;-56
2022/12/28 01:05:38;;;;;;;3.83;3.33;;;;;;;12.19;51.26;100483.59;5073657;28;20184;-55
2022/12/28 01:08:05;;;;;;;4.40;4.00;;;;;;;12.22;50.54;100481.06;5074421;28;20192;-56
2022/12/28 01:10:32;;;;;;;4.20;3.77;;;;;;;12.19;50.33;100487.88;5073622;28;20605;-56
2022/12/28 01:13:00;;;;;;;4.33;3.93;;;;;;;12.20;49.64;100480.16;5073401;28;20252;-56
2022/12/28 01:15:27;;;;;;;4.43;3.93;;;;;;;12.18;49.99;100484.41;5073803;28;20292;-56
2022/12/28 01:17:53;;;;;;;3.63;3.33;;;;;;;12.12;49.86;100480.78;5073518;28;20272;-56
2022/12/28 01:20:20;;;;;;;4.63;4.13;;;;;;;12.19;49.47;100475.84;5073551;28;20582;-56
2022/12/28 01:22:47;;;;;;;4.90;3.80;;;;;;;12.20;49.42;100480.16;5066002;28;20203;-56
2022/12/28 01:25:14;;;;;;;4.77;3.83;;;;;;;12.22;49.00;100483.63;5054536;28;20246;-56
2022/12/28 01:27:40;;;;;;;5.90;4.23;;;;;;;12.18;48.98;100475.81;5073154;28;20195;-56
2022/12/28 01:30:12;;;;;;;4.10;3.50;;;;;;;12.17;48.46;100481.78;5073650;28;20192;-56
2022/12/28 01:32:39;;;;;;;6.57;3.70;;;;;;;12.21;48.68;100484.50;5073728;28;20554;-56
2022/12/28 01:35:07;;;;;;;4.53;3.70;;;;;;;12.14;48.97;100474.00;5073261;28;20213;-56
2022/12/28 01:37:34;;;;;;;4.03;3.63;;;;;;;12.16;49.37;100485.19;5073057;28;20716;-57
2022/12/28 01:40:01;;;;;;;3.60;3.30;;;;;;;12.16;48.67;100490.34;5072680;28;20616;-57
2022/12/28 01:42:28;;;;;;;6.30;3.87;;;;;;;12.20;48.15;100479.28;5073108;28;20245;-56
2022/12/28 01:44:54;;;;;;;4.57;3.37;;;;;;;12.18;48.39;100475.81;5072634;28;20192;-57
2022/12/28 01:47:26;;;;;;;3.97;3.57;;;;;;;12.14;48.33;100474.84;5073051;28;20184;-57
2022/12/28 01:50:03;;;;;;;4.70;3.90;;;;;;;12.13;48.47;100473.13;5072939;28;20192;-57
2022/12/28 01:52:33;;;;;;;4.30;3.90;;;;;;;12.16;48.17;100474.91;5072907;28;20195;-56
2022/12/28 01:55:06;;;;;;;4.77;3.53;;;;;;;12.14;47.68;100463.69;5073531;28;20571;-56
2022/12/28 01:57:37;;;;;;;5.60;3.57;;;;;;;12.15;47.84;100479.16;5072692;28;20237;-56
2022/12/28 02:00:09;;;;;;;5.17;3.83;;;;;;;12.15;47.99;100479.16;5072916;28;20187;-56
2022/12/28 02:02:38;;;;;;;4.77;3.90;;;;;;;12.11;48.01;100479.06;5069973;28;20282;-57
2022/12/28 02:05:07;;;;;;;4.27;3.40;;;;;;;12.04;47.80;100483.19;5071495;28;20650;-56
2022/12/28 02:07:42;;;;;;;4.20;3.50;;;;;;;12.06;48.47;100483.22;5073004;28;20183;-56
2022/12/28 02:10:11;;;;;;;6.20;3.80;;;;;;;12.03;48.26;100481.41;5072522;28;20195;-56
2022/12/28 02:12:38;;;;;;;3.60;3.30;;;;;;;12.06;47.79;100483.22;5072487;28;20192;-55
2022/12/28 02:15:06;;;;;;;5.87;3.80;;;;;;;11.95;48.33;100476.94;5072216;28;20272;-56
2022/12/28 02:17:33;;;;;;;4.37;3.50;;;;;;;11.93;48.39;100474.28;5072459;28;20211;-56
2022/12/28 02:20:01;;;;;;;3.50;3.20;;;;;;;11.98;47.16;100485.59;5072267;28;20241;-55
2022/12/28 02:23:03;;;;;;;4.00;3.60;;;;;;;11.99;46.95;100481.31;5072251;28;20187;-56
2022/12/28 02:25:56;;;;;;;5.63;3.78;;;;;;;12.03;46.54;100476.28;5071839;28;20993;-56
2022/12/28 02:29:03;;;;;;;4.93;3.53;;;;;;;12.00;46.51;100473.66;5072260;28;20249;-56
2022/12/28 02:31:40;;;;;;;4.82;3.65;;;;;;;12.00;45.82;100465.03;5009892;28;20481;-55
2022/12/28 02:34:15;;;;;;;3.67;3.37;;;;;;;11.97;46.17;100462.38;5061654;28;20191;-56
2022/12/28 02:36:48;;;;;;;4.23;3.47;;;;;;;12.01;46.02;100467.63;5072758;28;20194;-56
2022/12/28 02:39:20;;;;;;;3.97;3.30;;;;;;;12.00;45.67;100467.63;5072098;28;20305;-56
2022/12/28 02:41:47;;;;;;;4.57;3.57;;;;;;;12.03;45.77;100460.81;5072077;28;20194;-56
2022/12/28 02:50:04;;;;;;;5.20;3.37;;;;;;;11.99;45.47;100458.13;5072155;28;20188;-55
2022/12/28 02:50:06;;;;;;;4.10;3.70;;;;;;;12.20;44.36;100463.81;5070974;28;20861;-56
2022/12/28 02:52:53;;;;;;;3.70;3.40;;;;;;;12.28;43.89;100464.88;5071889;28;20192;-56
2022/12/28 02:58:31;;;;;;;3.60;3.30;;;;;;;12.26;43.83;100467.44;5076121;28;20213;-56
2022/12/28 03:01:08;;;;;;;4.40;3.63;;;;;;;12.19;44.25;100460.41;5076307;28;20253;-56
2022/12/28 03:03:44;;;;;;;4.23;3.47;;;;;;;12.23;43.76;100462.19;5076634;28;20252;-56
2022/12/28 03:09:09;;;;;;;3.53;3.23;;;;;;;12.23;43.77;100459.63;5076155;28;20674;-55
2022/12/28 03:11:40;;;;;;;4.00;3.17;;;;;;;12.22;43.48;100462.19;5075760;28;20191;-55
2022/12/28 03:14:11;;;;;;;3.73;3.43;;;;;;;12.18;43.26;100466.38;5075674;28;20712;-54
2022/12/28 03:33:14;;;;;;;5.13;3.53;;;;;;;12.02;43.70;100460.78;5075691;28;20298;-55
2022/12/28 03:35:50;;;;;;;5.00;3.70;;;;;;;12.13;43.71;100470.53;5075527;28;20187;-55
2022/12/28 03:38:26;;;;;;;3.80;3.23;;;;;;;12.08;43.32;100469.56;5075348;28;20225;-55
2022/12/28 03:40:59;;;;;;;5.67;3.30;;;;;;;12.04;43.29;100457.41;5071713;28;20198;-56
2022/12/28 03:43:42;;;;;;;5.93;3.40;;;;;;;12.06;43.31;100466.03;5068646;28;20741;-56
2022/12/28 03:46:16;;;;;;;3.80;3.40;;;;;;;12.11;43.10;100467.06;5067417;28;20191;-55
2022/12/28 03:48:44;;;;;;;3.60;3.30;;;;;;;12.10;43.01;100467.88;5071684;28;20562;-56
2022/12/28 03:51:14;;;;;;;4.03;3.73;;;;;;;12.14;43.36;100469.69;5073627;28;20190;-56
2022/12/28 03:53:43;;;;;;;3.40;3.10;;;;;;;12.16;43.47;100477.47;5073473;28;20188;-56
2022/12/28 03:56:12;;;;;;;4.20;3.13;;;;;;;12.09;44.05;100467.81;5072698;28;20186;-56
2022/12/28 03:58:39;;;;;;;4.20;3.80;;;;;;;11.90;43.95;100447.59;5071094;28;20227;-56
2022/12/28 04:01:06;;;;;;;4.40;3.80;;;;;;;12.07;44.00;100474.66;5071017;28;20658;-56
2022/12/28 04:03:33;;;;;;;4.30;3.90;;;;;;;11.93;44.00;100453.69;5068892;28;20589;-56
2022/12/28 04:06:00;;;;;;;3.50;3.20;;;;;;;12.09;43.45;100476.44;5073487;28;20201;-56
2022/12/28 04:08:28;;;;;;;4.37;3.90;;;;;;;12.15;43.56;100483.44;5073200;28;20241;-56
2022/12/28 04:10:55;;;;;;;3.93;3.53;;;;;;;12.16;43.60;100483.50;5073371;28;20214;-56
2022/12/28 04:13:22;;;;;;;5.63;3.80;;;;;;;12.17;43.85;100494.66;5064809;28;20198;-56
2022/12/28 04:15:56;;;;;;;5.10;4.17;;;;;;;12.08;44.29;100490.16;5062313;28;20667;-55
2022/12/28 04:18:23;;;;;;;4.57;3.37;;;;;;;12.08;43.79;100491.88;5054449;28;20188;-55
2022/12/28 04:20:50;;;;;;;4.30;3.70;;;;;;;12.12;43.76;100496.25;5062240;28;20250;-56
2022/12/28 04:23:17;;;;;;;3.90;3.50;;;;;;;12.04;44.30;100492.59;5072485;28;20252;-56
2022/12/28 04:25:56;;;;;;;3.70;3.40;;;;;;;12.12;44.25;100497.13;5073164;28;20187;-56
2022/12/28 04:28:23;;;;;;;4.67;3.63;;;;;;;12.12;43.92;100499.69;5072185;28;20199;-56
2022/12/28 04:30:49;;;;;;;4.77;3.50;;;;;;;12.11;44.58;100497.09;5074214;28;20666;-56
2022/12/28 04:33:16;;;;;;;4.10;3.70;;;;;;;12.11;43.96;100500.56;5074475;28;20199;-56
2022/12/28 04:35:43;;;;;;;4.20;3.80;;;;;;;12.10;44.37;100490.19;5074159;28;20221;-56
2022/12/28 04:38:10;;;;;;;4.67;3.97;;;;;;;12.09;44.71;100501.31;5074144;28;20195;-56
2022/12/28 04:40:36;;;;;;;4.40;3.73;;;;;;;12.05;44.85;100500.38;5074383;28;20247;-56
2022/12/28 04:43:05;;;;;;;4.87;3.80;;;;;;;12.04;45.01;100503.78;5074032;28;20195;-56
2022/12/28 04:45:31;;;;;;;5.63;3.97;;;;;;;12.01;45.49;100498.53;5074109;28;20711;-55
2022/12/28 04:47:58;;;;;;;4.03;3.63;;;;;;;11.98;45.32;100495.88;5074044;28;20191;-56
2022/12/28 04:50:25;;;;;;;4.50;3.87;;;;;;;11.99;45.33;100500.22;5073948;28;20257;-56
2022/12/28 04:52:52;;;;;;;4.00;3.60;;;;;;;11.92;45.25;100497.44;5073853;28;20194;-56
2022/12/28 04:55:19;;;;;;;5.40;4.43;;;;;;;11.88;44.89;100498.19;5074021;28;20531;-56
2022/12/28 04:57:47;;;;;;;4.27;3.80;;;;;;;11.41;44.96;100415.34;5073829;28;20712;-56
2022/12/28 05:00:15;;;;;;;4.23;3.63;;;;;;;11.77;44.79;100477.28;5073771;28;20721;-56
2022/12/28 05:02:42;;;;;;;5.53;3.80;;;;;;;11.91;45.32;100516.28;5073763;28;20723;-56
2022/12/28 05:05:09;;;;;;;4.83;3.53;;;;;;;11.93;44.99;100515.50;5074034;28;20566;-56
2022/12/28 05:07:36;;;;;;;4.77;3.60;;;;;;;11.95;45.51;100520.72;5074140;28;20188;-56
2022/12/28 05:10:03;;;;;;;4.13;3.73;;;;;;;11.97;45.62;100517.34;5073902;28;20222;-56
2022/12/28 05:12:29;;;;;;;4.20;3.47;;;;;;;11.95;45.38;100518.97;5073782;28;20187;-57
2022/12/28 05:14:56;;;;;;;5.67;4.20;;;;;;;11.95;45.83;100524.13;5073344;28;20227;-56
2022/12/28 05:17:24;;;;;;;4.80;3.97;;;;;;;11.91;45.94;100521.44;5073427;28;20191;-57
2022/12/28 05:19:51;;;;;;;4.53;4.10;;;;;;;11.93;46.49;100527.50;5072691;28;20218;-56
2022/12/28 05:22:18;;;;;;;4.63;4.07;;;;;;;11.94;45.98;100532.72;5073400;28;20184;-56
2022/12/28 05:24:44;;;;;;;4.87;4.20;;;;;;;11.93;46.12;100530.06;5073669;28;20617;-56
2022/12/28 05:27:11;;;;;;;5.17;4.40;;;;;;;11.89;46.74;100534.28;5073286;28;20249;-56
2022/12/28 05:29:38;;;;;;;4.27;3.87;;;;;;;11.94;46.78;100532.72;5073207;28;20187;-57
2022/12/28 05:32:06;;;;;;;4.30;3.90;;;;;;;11.95;47.27;100537.00;5073174;28;20673;-56
2022/12/28 05:34:34;;;;;;;5.37;4.87;;;;;;;11.90;47.83;100541.16;5073130;28;20192;-56
2022/12/28 05:37:01;;;;;;;7.07;4.33;;;;;;;11.84;47.91;100541.00;5073515;28;20206;-56
2022/12/28 05:39:27;;;;;;;5.27;4.37;;;;;;;11.79;47.81;100547.72;5073101;28;20716;-56
2022/12/28 05:41:58;;;;;;;4.33;3.93;;;;;;;11.64;48.09;100526.69;5072898;28;20608;-56
2022/12/28 05:44:25;;;;;;;4.93;4.27;;;;;;;11.81;47.84;100551.25;5072895;28;20191;-56
2022/12/28 05:46:52;;;;;;;5.53;5.00;;;;;;;11.81;48.03;100546.94;5072668;28;20723;-56
2022/12/28 05:49:19;;;;;;;6.33;5.00;;;;;;;11.77;48.04;100564.84;5072928;28;20284;-56
2022/12/28 05:51:49;;;;;;;4.73;4.20;;;;;;;11.76;48.08;100561.38;5072788;28;20193;-56
2022/12/28 05:54:15;;;;;;;4.93;4.53;;;;;;;11.78;48.51;100562.28;5072680;28;20199;-56
2022/12/28 05:56:42;;;;;;;6.70;5.17;;;;;;;11.76;48.68;100558.81;5071972;28;20662;-56
2022/12/28 05:59:09;;;;;;;5.63;4.80;;;;;;;11.62;49.03;100546.38;5072344;28;20709;-56
2022/12/28 06:01:37;;;;;;;6.53;5.83;;;;;;;11.59;49.54;100552.25;5072686;28;20195;-56
2022/12/28 06:04:06;;;;;;;7.63;6.03;;;;;;;11.68;49.50;100567.97;5072672;28;20184;-55
2022/12/28 06:06:34;;;;;;;8.00;5.60;;;;;;;11.61;50.35;100565.19;5072636;28;20192;-56
2022/12/28 06:09:04;;;;;;;6.37;5.57;;;;;;;11.63;51.00;100566.09;5072433;28;20218;-56
2022/12/28 06:11:31;;;;;;;6.20;5.60;;;;;;;11.61;51.49;100562.63;5072452;28;20558;-55
2022/12/28 06:13:59;;;;;;;6.47;5.80;;;;;;;11.64;51.66;100552.41;5072617;28;20694;-55
2022/12/28 06:16:28;;;;;;;8.70;6.20;;;;;;;11.66;51.80;100561.94;5072790;28;20183;-55
2022/12/28 06:18:55;;;;;;;7.43;6.72;;;;;;;11.75;51.93;100569.97;5070999;28;20921;-55
2022/12/28 06:21:23;;;;;;;7.83;6.37;;;;;;;11.83;51.10;100562.44;5072250;28;20666;-55
2022/12/28 06:23:51;;;;;;;7.20;6.50;;;;;;;11.70;51.44;100552.63;5069565;28;20446;-55
2022/12/28 06:26:20;;;;;;;7.57;5.87;;;;;;;11.92;51.40;100572.13;5069950;28;20727;-56
2022/12/28 06:28:48;;;;;;;6.77;5.87;;;;;;;11.95;51.03;100574.78;5071987;28;20255;-55
2022/12/28 06:31:17;;;;;;;7.47;6.27;;;;;;;11.93;50.79;100577.31;5062655;28;20195;-55
2022/12/28 06:33:44;;;;;;;7.83;6.37;;;;;;;11.88;51.43;100581.47;5072313;28;20558;-56
2022/12/28 06:36:12;;;;;;;7.93;5.70;;;;;;;11.90;50.89;100584.06;5071946;28;20666;-56
2022/12/28 06:38:39;;;;;;;7.53;5.67;;;;;;;11.91;50.22;100578.97;5072080;28;20194;-56
2022/12/28 06:41:07;;;;;;;6.57;5.97;;;;;;;11.92;50.05;100572.13;5071514;28;20490;-56
2022/12/28 06:43:37;;;;;;;6.43;5.37;;;;;;;11.94;49.58;100575.63;5072044;28;20259;-56
2022/12/28 06:46:04;;;;;;;7.87;5.53;;;;;;;11.98;49.03;100577.44;5070730;28;20621;-57
2022/12/28 06:48:32;;;;;;;6.30;5.13;;;;;;;12.05;48.54;100581.94;5071608;28;20202;-56
2022/12/28 06:51:00;;;;;;;6.47;5.07;;;;;;;12.05;48.71;100577.66;5065563;28;20592;-56
2022/12/28 06:53:28;;;;;;;6.83;5.53;;;;;;;12.14;48.80;100577.91;5063020;28;20552;-57
2022/12/28 06:55:56;;;;;;;5.90;5.30;;;;;;;12.21;48.14;100584.09;5068386;28;20727;-56
2022/12/28 06:58:23;;;;;;;10.00;5.43;;;;;;;12.23;47.73;100580.72;5066285;28;20203;-56
2022/12/28 07:00:51;;;;;;;6.23;5.63;;;;;;;12.24;47.33;100584.19;5069169;28;20273;-57
2022/12/28 07:03:18;;;;;;;6.40;5.25;;;;;;;12.30;47.01;100590.38;5068315;28;20979;-56
2022/12/28 07:05:45;;;;;;;6.73;5.53;;;;;;;12.32;47.27;100595.56;5071100;28;20195;-56
2022/12/28 07:08:12;;;;;;;7.93;5.63;;;;;;;12.38;47.03;100601.78;5071075;28;20349;-56
2022/12/28 07:10:39;;;;;;;6.40;5.80;;;;;;;12.44;46.62;100608.78;5070676;28;20188;-56
2022/12/28 07:13:07;;;;;;;10.83;8.27;;;;;;;12.37;47.72;100606.88;5070430;28;20658;-56
2022/12/28 07:15:35;;;;;;;13.30;6.83;;;;;;;12.24;47.21;100603.09;5071709;28;20269;-56
2022/12/28 07:18:03;;;;;;;14.70;11.17;;;;;;;12.28;48.25;100617.78;5051514;28;20185;-56
2022/12/28 07:20:30;;;;;;;25.03;16.00;;;;;;;12.04;50.93;100617.13;5051418;28;20223;-56
2022/12/28 07:22:57;;;;;;;24.10;16.07;;;;;;;11.93;52.11;100615.94;5055171;28;20286;-56
2022/12/28 07:25:24;;;;;;;23.63;17.50;;;;;;;11.75;52.93;100631.75;5069429;28;20187;-56
2022/12/28 07:27:50;;;;;;;20.77;15.30;;;;;;;11.61;53.45;100630.44;5071077;28;20725;-56
2022/12/28 07:30:17;;;;;;;25.10;16.57;;;;;;;11.58;53.55;100629.44;5066478;28;20200;-57
2022/12/28 07:32:44;;;;;;;31.23;17.03;;;;;;;11.53;53.89;100639.63;5066281;28;20188;-56
2022/12/28 07:35:12;;;;;;;12.60;9.37;;;;;;;11.58;52.83;100634.59;5066800;28;20192;-57
2022/12/28 07:37:39;;;;;;;12.03;7.97;;;;;;;11.64;52.51;100638.25;5066803;28;20199;-56
2022/12/28 07:40:07;;;;;;;11.93;7.83;;;;;;;11.79;52.02;100635.28;5071423;28;20273;-56
2022/12/28 07:42:34;;;;;;;10.90;7.03;;;;;;;11.81;51.96;100628.50;5072277;28;20191;-57
2022/12/28 07:45:01;;;;;;;7.83;6.50;;;;;;;11.88;51.37;100637.25;5075030;28;20188;-56
2022/12/28 07:47:27;;;;;;;11.70;6.63;;;;;;;11.90;51.22;100641.59;5074774;28;20249;-56
2022/12/28 07:49:54;;;;;;;9.53;6.80;;;;;;;11.95;51.27;100642.59;5074903;28;20195;-57
2022/12/28 07:52:22;;;;;;;8.33;7.53;;;;;;;12.02;51.28;100647.13;5074776;28;20194;-56
2022/12/28 07:54:49;;;;;;;11.32;7.78;;;;;;;12.07;51.34;100657.56;5072105;28;20433;-56
2022/12/28 07:57:16;;;;;;;9.27;8.17;;;;;;;12.27;51.42;100653.84;5074698;28;20184;-56
2022/12/28 07:59:43;;;;;;;16.43;10.63;;;;;;;12.30;51.21;100657.38;5074387;28;20215;-56
2022/12/28 08:02:10;;;;;;;27.23;17.40;;;;;;;12.29;52.18;100655.63;5074053;28;20202;-56
2022/12/28 08:04:37;;;;;;;25.87;18.93;;;;;;;12.25;52.75;100666.66;5074506;28;20319;-56
2022/12/28 08:07:03;;;;;;;27.80;17.93;;;;;;;12.20;52.99;100669.94;5071647;28;20187;-56
2022/12/28 08:09:32;;;;;;;24.37;14.57;;;;;;;12.13;52.74;100673.19;5074103;28;20222;-57
2022/12/28 08:11:59;;;;;;;23.10;13.40;;;;;;;12.06;53.50;100679.84;5074060;28;20544;-57
2022/12/28 08:14:25;;;;;;;17.27;11.67;;;;;;;12.03;53.85;100673.75;5074280;28;20767;-57
2022/12/28 08:16:52;;;;;;;17.37;12.77;;;;;;;11.98;53.82;100673.59;5072077;28;20190;-58
2022/12/28 08:19:19;;;;;;;20.67;12.57;;;;;;;11.95;54.09;100676.09;5070110;28;20211;-56
2022/12/28 08:21:46;;;;;;;19.30;13.20;;;;;;;11.72;54.35;100651.38;5072918;28;20219;-58
2022/12/28 08:24:15;;;;;;;19.40;12.33;;;;;;;11.88;54.77;100675.88;5073172;28;20198;-57
2022/12/28 08:26:44;;;;;;;15.50;12.13;;;;;;;11.86;54.89;100683.56;5074117;28;20191;-56
2022/12/28 08:29:13;;;;;;;26.97;17.27;;;;;;;11.83;54.69;100688.63;5074002;28;20195;-56
2022/12/28 08:31:42;;;;;;;23.02;18.08;;;;;;;11.89;54.92;100696.53;5073062;28;20437;-56
2022/12/28 08:34:12;;;;;;;22.17;14.73;;;;;;;11.80;54.49;100699.72;5074146;28;20191;-57
2022/12/28 08:36:39;;;;;;;19.03;15.90;;;;;;;11.83;54.56;100698.91;5074721;28;20195;-56
2022/12/28 08:39:06;;;;;;;20.00;14.77;;;;;;;11.77;54.88;100702.19;5073272;28;20187;-57
2022/12/28 08:41:33;;;;;;;20.80;14.13;;;;;;;11.57;55.40;100680.06;5072218;28;20207;-57
2022/12/28 08:44:01;;;;;;;22.17;13.80;;;;;;;11.67;55.53;100700.09;5072287;28;20188;-58
2022/12/28 08:46:30;;;;;;;20.07;12.37;;;;;;;11.55;55.93;100680.84;5072235;28;20201;-56
2022/12/28 08:48:59;;;;;;;22.87;15.90;;;;;;;11.56;56.51;100690.31;5072082;28;20605;-56
2022/12/28 08:51:29;;;;;;;25.63;16.20;;;;;;;11.58;56.49;100693.81;5069838;28;20248;-57
2022/12/28 08:53:56;;;;;;;21.80;16.60;;;;;;;11.37;56.56;100672.56;5071175;28;20183;-56
2022/12/28 08:56:26;;;;;;;19.23;15.20;;;;;;;11.61;56.70;100699.94;5069279;28;20183;-57
2022/12/28 08:58:53;;;;;;;17.53;13.87;;;;;;;11.65;56.56;100703.44;5072253;28;20192;-58
2022/12/28 09:01:23;;;;;;;21.80;15.60;;;;;;;11.63;56.11;100716.28;5072238;28;20207;-57
2022/12/28 09:03:52;;;;;;;20.60;13.93;;;;;;;11.63;56.08;100713.72;5073617;28;20192;-58
2022/12/28 09:06:21;;;;;;;26.17;17.93;;;;;;;11.46;56.36;100693.41;5064330;28;20215;-58
2022/12/28 09:08:50;;;;;;;29.27;18.43;;;;;;;11.58;56.71;100706.69;5073274;28;20199;-59
2022/12/28 09:11:17;;;;;;;25.40;14.57;;;;;;;11.59;57.37;100713.59;5068056;28;20192;-58
2022/12/28 09:13:43;;;;;;;26.30;14.00;;;;;;;11.60;57.17;100707.59;5057400;28;20274;-55
2022/12/28 09:16:12;;;;;;;22.00;14.10;;;;;;;11.57;57.67;100710.06;5062101;28;20200;-56
2022/12/28 09:18:42;;;;;;;20.93;14.23;;;;;;;11.41;57.76;100682.09;5071880;28;20200;-55
2022/12/28 09:21:12;;;;;;;17.85;14.70;;;;;;;11.69;57.76;100710.50;5063922;28;20452;-56
2022/12/28 09:23:39;;;;;;;16.73;11.97;;;;;;;11.73;57.64;100718.34;5052783;28;20216;-56
2022/12/28 09:26:07;;;;;;;20.00;13.23;;;;;;;11.59;58.33;100700.72;5053063;28;20188;-56
2022/12/28 09:28:34;;;;;;;18.10;11.10;;;;;;;11.71;57.92;100729.44;5053357;28;20191;-56
2022/12/28 09:31:03;;;;;;;17.10;12.47;;;;;;;11.59;58.27;100721.31;5053052;28;20196;-56
2022/12/28 09:36:15;;;;;;;21.47;13.70;;;;;;;11.48;59.39;100713.22;5072877;28;20647;-56
2022/12/28 09:38:42;;;;;;;17.20;12.97;;;;;;;11.60;60.12;100710.16;5072881;28;20670;-56
2022/12/28 09:41:22;;;;;;;26.90;19.13;;;;;;;11.62;60.14;100701.66;5060993;28;20293;-56
2022/12/28 09:43:51;;;;;;;21.73;15.77;;;;;;;11.70;60.72;100707.09;5071959;28;20195;-58
2022/12/28 09:46:21;;;;;;;17.10;13.43;;;;;;;11.74;61.60;100693.47;5071212;28;20573;-56
2022/12/28 09:48:56;;;;;;;14.00;10.90;;;;;;;11.75;61.24;100690.09;5072416;28;20256;-56
2022/12/28 09:51:32;;;;;;;17.83;11.40;;;;;;;11.46;62.29;100690.84;5073982;28;20195;-58
2022/12/28 09:53:59;;;;;;;19.87;12.00;;;;;;;11.50;62.82;100690.13;5074266;28;20194;-56
2022/12/28 09:56:31;;;;;;;16.80;12.40;;;;;;;11.57;63.16;100684.31;5072913;28;20196;-56
2022/12/28 09:58:58;;;;;;;18.30;12.67;;;;;;;11.66;63.01;100690.66;5062151;28;20192;-56
2022/12/28 10:01:26;;;;;;;15.87;11.60;;;;;;;11.76;62.54;100681.53;5068682;28;20536;-57
2022/12/28 10:03:55;;;;;;;17.40;14.80;;;;;;;11.79;61.88;100676.47;5071106;28;20430;-56
2022/12/28 10:06:26;;;;;;;22.50;14.73;;;;;;;11.74;62.43;100673.75;5071186;28;20219;-58
2022/12/28 10:08:54;;;;;;;24.20;14.90;;;;;;;11.78;62.38;100669.59;5067340;28;20271;-57
2022/12/28 10:11:24;;;;;;;18.73;12.57;;;;;;;11.82;62.39;100676.56;5069026;28;20188;-56
2022/12/28 10:13:55;;;;;;;21.87;13.77;;;;;;;11.87;62.49;100674.16;5070232;28;20224;-56
2022/12/28 10:16:25;;;;;;;18.20;13.48;;;;;;;11.76;62.40;100655.78;5070823;28;20465;-56
2022/12/28 10:18:52;;;;;;;28.50;16.77;;;;;;;11.96;61.90;100676.97;5070231;28;20195;-57
2022/12/28 10:21:21;;;;;;;20.07;13.27;;;;;;;11.86;62.08;100678.41;5066952;28;20223;-56
2022/12/28 10:23:52;;;;;;;20.10;13.37;;;;;;;11.72;62.48;100670.28;5070662;28;20299;-56
2022/12/28 10:26:20;;;;;;;19.70;13.53;;;;;;;11.41;63.73;100671.81;5063873;28;20195;-57
2022/12/28 10:28:51;;;;;;;28.53;16.63;;;;;;;11.18;65.46;100666.78;5069436;28;20191;-56
2022/12/28 10:31:31;;;;;;;27.93;17.77;;;;;;;11.34;65.54;100664.72;5067997;28;20192;-55
2022/12/28 10:33:58;;;;;;;29.53;22.20;;;;;;;11.50;64.36;100666.97;5068640;28;20252;-56
2022/12/28 10:36:25;;;;;;;40.10;27.20;;;;;;;11.42;63.86;100671.00;5071815;28;20187;-57
2022/12/28 10:38:56;;;;;;;30.77;23.17;;;;;;;11.39;64.39;100664.06;5063613;28;20567;-56
2022/12/28 10:41:34;;;;;;;23.83;17.93;;;;;;;11.42;64.22;100655.56;5049613;28;20243;-57
2022/12/28 10:44:15;;;;;;;24.13;15.20;;;;;;;11.35;63.31;100664.75;5049485;28;20618;-56
2022/12/28 10:46:52;;;;;;;19.30;13.23;;;;;;;11.12;63.12;100640.88;5050072;28;20418;-56
2022/12/28 10:49:20;;;;;;;19.27;12.73;;;;;;;11.23;62.26;100649.81;5050603;28;20195;-57
2022/12/28 10:51:59;;;;;;;15.07;12.03;;;;;;;11.45;61.50;100659.09;5050233;28;20670;-56
2022/12/28 10:54:32;;;;;;;18.40;12.70;;;;;;;11.55;61.00;100650.81;5050542;28;20241;-56
2022/12/28 10:56:59;;;;;;;18.27;11.43;;;;;;;11.64;60.54;100645.09;5049874;28;20239;-56
2022/12/28 10:59:27;;;;;;;13.93;10.87;;;;;;;11.49;60.46;100636.88;5050463;28;20219;-56
2022/12/28 11:01:56;;;;;;;17.40;10.03;;;;;;;11.52;61.26;100655.00;5050686;28;20606;-56
2022/12/28 11:04:25;;;;;;;18.57;10.90;;;;;;;11.65;60.90;100654.53;5050504;28;20188;-56
2022/12/28 11:06:54;;;;;;;17.60;11.13;;;;;;;11.75;61.03;100654.03;5050553;28;20662;-55
2022/12/28 11:09:23;;;;;;;16.40;12.03;;;;;;;11.57;61.27;100625.13;5049833;28;20450;-56
2022/12/28 11:11:54;;;;;;;16.30;10.13;;;;;;;11.64;62.73;100650.25;5050958;28;20446;-56
2022/12/28 11:14:31;;;;;;;15.60;10.60;;;;;;;11.60;63.42;100656.97;5051185;28;20285;-55
2022/12/28 11:16:58;;;;;;;15.40;11.30;;;;;;;11.48;64.96;100656.59;5051296;28;20246;-55
2022/12/28 11:19:25;;;;;;;13.53;10.70;;;;;;;11.50;65.34;100639.53;5055587;28;20192;-55
2022/12/28 11:21:53;;;;;;;15.27;10.33;;;;;;;11.50;65.75;100651.50;5055210;28;20220;-55
2022/12/28 11:24:25;;;;;;;17.37;10.80;;;;;;;11.46;66.98;100653.09;5062366;28;20267;-56
2022/12/28 11:26:54;;;;;;;13.53;10.70;;;;;;;11.48;66.79;100658.31;5063678;28;20215;-56
2022/12/28 11:29:20;;;;;;;15.13;12.13;;;;;;;11.56;67.51;100656.84;5067328;28;20199;-56
2022/12/28 11:31:54;;;;;;;18.90;11.60;;;;;;;11.53;67.81;100646.47;5073279;28;20680;-56
2022/12/28 11:34:26;;;;;;;16.50;12.77;;;;;;;11.45;67.81;100653.06;5057705;28;20203;-56
2022/12/28 11:36:53;;;;;;;14.33;9.63;;;;;;;11.61;67.63;100652.72;5057902;28;20199;-56
2022/12/28 11:39:43;;;;;;;14.10;10.43;;;;;;;11.57;66.89;100628.56;5073077;28;20293;-57
2022/12/28 11:42:13;;;;;;;16.30;10.07;;;;;;;11.79;65.88;100656.75;5074304;28;20219;-56
2022/12/28 11:44:53;;;;;;;11.50;10.30;;;;;;;11.87;65.03;100653.53;5075016;28;20654;-56
2022/12/28 11:47:32;;;;;;;14.50;9.90;;;;;;;11.83;65.03;100631.97;5074836;28;20187;-56
2022/12/28 11:50:50;;;;;;;13.17;10.63;;;;;;;11.83;63.96;100653.44;5074103;28;20932;-56
2022/12/28 11:53:23;;;;;;;12.13;10.07;;;;;;;11.88;64.28;100643.28;5071602;28;20449;-57
2022/12/28 11:56:06;;;;;;;14.33;9.90;;;;;;;11.95;63.84;100647.75;5072378;28;20192;-57
2022/12/28 11:59:06;;;;;;;11.67;10.03;;;;;;;11.96;64.25;100646.94;5072437;28;20195;-57